LHSM/SOB METAR and TAF weather

Enter ICAO airport designator
Station Type Date Time Source
LHSM METAR 2021/10/22 18:45 UTC NOAA

LHSM 221845Z AUTO 35002KT 7000 SCT005 OVC019 12/12 Q1019


Station Type Date Time Source
LHSM Decoded METAR 2021/10/22 18:45 UTC NOAA

Station name not available
Oct 22, 2021 - 02:45 PM EDT / 2021.10.22 1845 UTC
Wind: from the N (350 degrees) at 2 MPH (2 KT):0
Visibility: 4 mile(s):0
Sky conditions: overcast
Temperature: 53 F (12 C)
Dew Point: 53 F (12 C)
Relative Humidity: 100%
Pressure (altimeter): 30.09 in. Hg (1019 hPa)
ob: LHSM 221845Z AUTO 35002KT 7000 SCT005 OVC019 12/12 Q1019
cycle: 19

Station Type Date Time Source
LHSM TAF UTC NOAA

Error!

Example: see airport list